Galeton, Colorado
Current Conditions -  °F | °C
As of 8:35 PM on Monday 20 Oct 2014 (Local Time) from KGXY Reporting Station
Clear Clear  
Wind Chill: 55°   Ceiling: Unl
Heat Index: 55°   Visibility: 10mi
Dew Point: 34°   Wind: 9mph
Humidity: 44%   Direction: 130°SE
Pressure: 30.04"   Gusts: NA
Location:  40.52°N, 104.59°W
Report Text: KGXY 210235Z AUTO 13008KT 10SM CLR 13/01 A3004 RMK AO1
Loading
Personal Weather Stations






























Interactive Weather Map New forecast layout! Learn more

10-Day Weather Forecast

Advertisements
Track Severe Weather on mobile